Mount Blanchard, Ohio
Current Conditions -  °F | °C
As of 7:53 AM on Saturday 20 Dec 2014 (Local Time) from KFDY Reporting Station
Overcast Overcast  
Wind Chill: 30°   Ceiling: 2600
Heat Index: 30°   Visibility: 10mi
Dew Point: 23°   Wind: 3mph
Humidity: 75%   Direction: 110°ESE
Pressure: 30.28"   Gusts: NA
Location:  40.9°N, 83.56°W
Report Text: KFDY 201253Z AUTO 11003KT 10SM OVC026 M01/M05 A3028 RMK AO2 SLP258 T10111050
Loading
Personal Weather Stations






























Interactive Weather Map New forecast layout! Learn more

10-Day Weather Forecast

Advertisements
Track Severe Weather on mobile